createdAt,value
2022-09-20T00:03:03.325Z,11.30
2022-09-20T00:08:11.015Z,11.20
2022-09-20T00:13:14.532Z,11.30
2022-09-20T00:18:17.416Z,11.30
2022-09-20T00:23:20.572Z,11.30
2022-09-20T00:28:23.581Z,11.20
2022-09-20T00:33:49.836Z,11.30
2022-09-20T00:39:02.061Z,11.30
2022-09-20T00:44:43.683Z,11.20
2022-09-20T00:49:46.893Z,11.30
2022-09-20T00:54:51.268Z,11.20
2022-09-20T00:59:54.880Z,11.20
2022-09-20T01:04:58.331Z,11.20
2022-09-20T01:10:01.303Z,11.20
2022-09-20T01:15:06.501Z,11.20
2022-09-20T01:20:18.171Z,11.20
2022-09-20T01:25:57.760Z,11.20
2022-09-20T01:31:39.705Z,11.30
2022-09-20T01:36:52.137Z,11.40
2022-09-20T01:42:00.266Z,11.40
2022-09-20T01:47:39.373Z,11.40
2022-09-20T01:53:38.086Z,11.50
2022-09-20T01:59:30.332Z,11.50
2022-09-20T02:05:40.714Z,11.50
2022-09-20T02:11:05.371Z,11.50
2022-09-20T02:16:49.904Z,11.40
2022-09-20T02:22:26.780Z,11.40
2022-09-20T02:28:22.790Z,11.40
2022-09-20T02:33:43.797Z,11.40
2022-09-20T02:39:08.082Z,11.30
2022-09-20T02:44:28.801Z,11.30
2022-09-20T02:50:09.294Z,11.20
2022-09-20T02:55:18.767Z,11.20
2022-09-20T03:00:29.068Z,11.20
2022-09-20T03:06:05.829Z,11.10
2022-09-20T03:11:56.450Z,11.10
2022-09-20T03:17:48.532Z,11.10
2022-09-20T03:23:50.218Z,11.10
2022-09-20T03:29:23.487Z,11.10
2022-09-20T03:35:17.103Z,11.10
2022-09-20T03:40:46.183Z,11.10
2022-09-20T03:46:39.129Z,11.00
2022-09-20T03:51:48.947Z,11.00
2022-09-20T03:57:27.297Z,10.90
2022-09-20T04:03:02.379Z,10.90
2022-09-20T04:08:14.177Z,11.00
2022-09-20T04:14:17.436Z,10.90
2022-09-20T04:19:45.722Z,10.90
2022-09-20T04:25:07.409Z,10.80
2022-09-20T04:30:22.041Z,10.80
2022-09-20T04:35:55.367Z,10.80
2022-09-20T04:41:37.961Z,10.70
2022-09-20T04:47:07.121Z,10.60
2022-09-20T04:52:44.641Z,10.50
2022-09-20T04:58:25.507Z,10.60
2022-09-20T05:04:14.729Z,10.50
2022-09-20T05:09:38.490Z,10.50
2022-09-20T05:14:59.028Z,10.50
2022-09-20T05:20:48.595Z,10.50
2022-09-20T05:26:15.985Z,10.60
2022-09-20T05:31:44.929Z,10.70
2022-09-20T05:37:21.412Z,10.80
2022-09-20T05:42:54.349Z,10.90
2022-09-20T05:48:23.152Z,11.10
2022-09-20T05:53:56.835Z,11.20
2022-09-20T05:59:20.862Z,11.30
2022-09-20T06:04:43.132Z,11.30
2022-09-20T06:10:04.472Z,11.40
2022-09-20T06:15:26.338Z,11.50
2022-09-20T06:20:50.761Z,11.70
2022-09-20T06:26:07.792Z,11.80
2022-09-20T06:31:11.488Z,12.00
2022-09-20T06:37:04.879Z,12.10
2022-09-20T06:42:10.224Z,12.30
2022-09-20T06:47:15.359Z,12.40
2022-09-20T06:52:23.077Z,12.50
2022-09-20T06:57:40.117Z,12.60
2022-09-20T07:02:43.798Z,12.70
2022-09-20T07:07:47.632Z,12.80
2022-09-20T07:12:50.475Z,12.90
2022-09-20T07:17:53.590Z,13.00
2022-09-20T07:22:56.429Z,13.10
2022-09-20T07:27:59.751Z,13.40
2022-09-20T07:33:02.599Z,13.60
2022-09-20T07:38:05.644Z,13.80
2022-09-20T07:43:11.211Z,13.90
2022-09-20T07:48:14.864Z,14.00
2022-09-20T07:53:17.641Z,14.00
2022-09-20T07:58:20.465Z,14.10
2022-09-20T08:03:23.866Z,14.20
2022-09-20T08:08:26.740Z,14.40
2022-09-20T08:18:57.271Z,14.60
2022-09-20T08:24:00.874Z,14.60
2022-09-20T08:29:06.412Z,14.50
2022-09-20T08:34:12.647Z,14.40
2022-09-20T08:45:00.426Z,14.40
2022-09-20T08:50:10.100Z,14.50
2022-09-20T08:55:24.325Z,14.50
2022-09-20T09:00:35.153Z,14.50
2022-09-20T09:05:44.597Z,14.50
2022-09-20T09:10:54.952Z,14.60
2022-09-20T09:16:12.233Z,14.70
2022-09-20T09:21:28.076Z,14.80
2022-09-20T09:26:41.318Z,14.90
2022-09-20T09:31:52.824Z,14.90
2022-09-20T09:36:57.438Z,14.90
2022-09-20T09:42:01.382Z,14.90
2022-09-20T09:47:04.537Z,15.10
2022-09-20T09:52:24.863Z,15.50
2022-09-20T09:58:00.625Z,15.50
2022-09-20T10:03:33.354Z,15.60
2022-09-20T10:09:08.199Z,15.60
2022-09-20T10:14:35.915Z,15.50
2022-09-20T10:20:28.230Z,15.70
2022-09-20T10:25:43.317Z,16.10
2022-09-20T10:31:37.298Z,16.50
2022-09-20T10:36:55.970Z,16.80
2022-09-20T10:42:35.508Z,17.10
2022-09-20T10:48:03.106Z,17.20
2022-09-20T10:53:18.132Z,17.60
2022-09-20T10:59:05.603Z,18.50
2022-09-20T11:04:37.354Z,19.30
2022-09-20T11:09:50.542Z,20.00
2022-09-20T11:15:04.447Z,20.20
2022-09-20T11:20:27.876Z,20.40
2022-09-20T11:25:37.839Z,20.60
2022-09-20T11:31:02.381Z,20.70
2022-09-20T11:36:14.231Z,20.90
2022-09-20T11:41:32.302Z,20.90
2022-09-20T11:47:01.328Z,21.00
2022-09-20T11:52:13.359Z,20.80
2022-09-20T11:57:17.027Z,20.70
2022-09-20T12:02:51.617Z,20.70
2022-09-20T12:07:58.617Z,20.50
2022-09-20T12:13:08.786Z,20.40
2022-09-20T12:18:36.459Z,20.20
2022-09-20T12:23:42.639Z,20.00
2022-09-20T12:28:51.510Z,19.50
2022-09-20T12:34:13.298Z,19.10
2022-09-20T12:39:23.311Z,18.80
2022-09-20T12:44:40.570Z,18.10
2022-09-20T12:50:04.586Z,17.50
2022-09-20T12:55:11.268Z,17.00
2022-09-20T13:00:54.424Z,16.70
2022-09-20T13:06:06.530Z,16.50
2022-09-20T13:11:18.738Z,16.20
2022-09-20T13:16:45.550Z,16.10
2022-09-20T13:22:14.291Z,16.10
2022-09-20T13:27:32.558Z,16.20
2022-09-20T13:32:35.913Z,16.40
2022-09-20T13:38:05.757Z,16.70
2022-09-20T13:43:33.732Z,16.70
2022-09-20T13:48:36.836Z,16.90
2022-09-20T13:53:41.906Z,17.00
2022-09-20T13:58:45.407Z,17.00
2022-09-20T14:03:48.592Z,17.00
2022-09-20T14:08:51.871Z,16.70
2022-09-20T14:14:01.736Z,16.50
2022-09-20T14:19:09.864Z,16.30
2022-09-20T14:24:59.595Z,16.10
2022-09-20T14:30:03.974Z,15.80
2022-09-20T14:35:20.663Z,15.60
2022-09-20T14:40:33.407Z,15.40
2022-09-20T14:45:43.279Z,15.30
2022-09-20T14:51:18.150Z,15.30
2022-09-20T14:56:35.834Z,15.30
2022-09-20T15:01:45.113Z,15.40
2022-09-20T15:06:50.176Z,15.30
2022-09-20T15:12:10.438Z,15.30
2022-09-20T15:17:23.626Z,15.20
2022-09-20T15:22:27.511Z,15.10
2022-09-20T15:27:30.300Z,14.90
2022-09-20T15:32:33.165Z,14.80
2022-09-20T15:37:36.464Z,14.70
2022-09-20T15:42:41.621Z,14.60
2022-09-20T15:47:44.714Z,14.50
2022-09-20T15:52:51.349Z,14.30
2022-09-20T15:57:54.190Z,14.20
2022-09-20T16:02:56.872Z,14.20
2022-09-20T16:07:59.730Z,14.10
2022-09-20T16:13:02.960Z,14.10
2022-09-20T16:18:24.798Z,14.00
2022-09-20T16:23:27.481Z,13.90
2022-09-20T16:28:30.978Z,13.80
2022-09-20T16:33:36.411Z,13.80
2022-09-20T16:38:44.997Z,13.80
2022-09-20T16:43:50.167Z,13.70
2022-09-20T16:48:55.023Z,13.70
2022-09-20T16:53:57.998Z,13.60
2022-09-20T16:59:05.630Z,13.60
2022-09-20T17:04:09.655Z,13.60
2022-09-20T17:09:13.899Z,13.60
2022-09-20T17:14:20.399Z,13.60
2022-09-20T17:19:23.326Z,13.50
2022-09-20T17:24:26.424Z,13.40
2022-09-20T17:29:29.193Z,13.30
2022-09-20T17:34:31.888Z,13.10
2022-09-20T17:39:34.812Z,12.90
2022-09-20T17:44:39.178Z,12.70
2022-09-20T17:49:43.188Z,12.60
2022-09-20T17:54:45.880Z,12.50
2022-09-20T17:59:48.621Z,12.40
2022-09-20T18:04:52.704Z,12.30
2022-09-20T18:09:56.070Z,12.20
2022-09-20T18:14:59.057Z,12.20
2022-09-20T18:20:02.132Z,12.10
2022-09-20T18:25:05.618Z,12.20
2022-09-20T18:30:09.231Z,12.20
2022-09-20T18:35:11.895Z,12.20
2022-09-20T18:40:14.795Z,12.20
2022-09-20T18:45:20.528Z,12.20
2022-09-20T18:50:26.579Z,12.20
2022-09-20T18:55:30.043Z,12.10
2022-09-20T19:00:33.397Z,12.10
2022-09-20T19:05:52.432Z,12.10
2022-09-20T19:11:03.901Z,12.10
2022-09-20T19:16:21.080Z,12.10
2022-09-20T19:21:45.426Z,12.00
2022-09-20T19:26:48.971Z,12.00
2022-09-20T19:31:58.913Z,11.90
2022-09-20T19:37:51.640Z,11.90
2022-09-20T19:43:19.446Z,11.80
2022-09-20T19:48:40.369Z,11.80
2022-09-20T19:53:43.619Z,11.70
2022-09-20T19:58:47.485Z,11.70
2022-09-20T20:03:52.211Z,11.60
2022-09-20T20:09:21.272Z,11.60
2022-09-20T20:14:40.481Z,11.50
2022-09-20T20:20:29.115Z,11.50
2022-09-20T20:25:41.623Z,11.60
2022-09-20T20:30:44.710Z,11.50
2022-09-20T20:35:58.947Z,11.50
2022-09-20T20:41:14.714Z,11.40
2022-09-20T20:46:21.007Z,11.40
2022-09-20T20:51:24.142Z,11.40
2022-09-20T20:56:30.096Z,11.30
2022-09-20T21:01:38.677Z,11.30
2022-09-20T21:06:42.306Z,11.20
2022-09-20T21:11:46.626Z,11.20
2022-09-20T21:16:52.150Z,11.20
2022-09-20T21:21:54.849Z,11.20
2022-09-20T21:26:57.579Z,11.20
2022-09-20T21:32:00.272Z,11.20
2022-09-20T21:37:03.196Z,11.20
2022-09-20T21:42:07.981Z,11.20
2022-09-20T21:47:10.694Z,11.10
2022-09-20T21:52:14.255Z,11.20
2022-09-20T21:57:16.955Z,11.20
2022-09-20T22:02:19.711Z,11.30
2022-09-20T22:07:23.085Z,11.20
2022-09-20T22:12:25.846Z,11.20
2022-09-20T22:17:29.543Z,11.30
2022-09-20T22:22:32.353Z,11.20
2022-09-20T22:27:35.103Z,11.20
2022-09-20T22:32:37.820Z,11.10
2022-09-20T22:37:40.796Z,11.00
2022-09-20T22:42:43.498Z,10.80
2022-09-20T22:47:46.693Z,10.70
2022-09-20T22:52:49.497Z,10.70
2022-09-20T22:57:52.818Z,10.60
2022-09-20T23:03:01.559Z,10.60
2022-09-20T23:08:05.473Z,10.70
2022-09-20T23:13:08.241Z,10.70
2022-09-20T23:18:11.535Z,10.80
2022-09-20T23:23:23.553Z,10.80
2022-09-20T23:28:27.273Z,10.80
2022-09-20T23:33:30.014Z,10.80
2022-09-20T23:38:32.728Z,10.70
2022-09-20T23:43:36.954Z,10.70
2022-09-20T23:48:44.213Z,10.60
2022-09-20T23:53:47.227Z,10.60
2022-09-20T23:58:50.837Z,10.60
